Aérodrome :
LOGIN :

S'inscrire | Disclaimer

   EN    FR    IT 

 










Légende :    VFR   VFR Marginal   IFR   IFR Intensif   IFR Très Intensif
Visi : 
Plafond : 
>= 8 km
>= 3000ft
5 à 8 km
1000 à 3000 ft
1500m à 5 km
500 à 1000 ft
800 à 1500m
200 à 500 ft
< 800m
< 200 ft
Symboles :   Orages  Brouillard  Fortes neiges  Fortes précipitations  Vent > 20 kt
SIGMETs :   Divers  Orages  Givrage  Turbulence  Onde Orograph.  Cendres Volcan.







- Altitude de l'aérodrome : 7 ft
- Code IATA : POW


LJPZ - Portoroz

DERNIER METAR :
  • 221500Z 05007KT 010V090 CAVOK 06/M05 Q1003

METARs EXPIRÉS :
  • 221430Z 05009KT CAVOK 07/M05 Q1004
  • 221400Z 05009KT CAVOK 07/M05 Q1004
  • 221330Z 06010KT CAVOK 07/M04 Q1004
  • 221300Z 06009KT 030V110 CAVOK 07/M05 Q1004
  • 221230Z 05010KT 020V080 CAVOK 08/M04 Q1005

TAF TAF LJPZ
Valide du 22 à 15h jusqu'au 23 à 00h UTC


221400Z 2215/2224 06010KT CAVOK
BECMG 2215/2217 BKN070
Pas de NOTAMs connus pour ce terrain.
1 SIGMET publié pour la FIR Ljubljana (LJLA) :
 
Turbulence forte
LJLA SIGMET 3 VALID 221400/221700 LJLJ
LJLA LJUBLJANA FIR SEV TURB FCST WI N4547 E01348 - N4554 E01402 - N4534 E01431 - N4525 E01412 - N4547 E01348 SFC/5000FT STNR NC=



MET'MAP, la Météo Aéronautique d'un coup d'oeil ! - Copyright ORBIFLY Décembre 2007 - Disclaimer

ORBIFLY MET'MAP TEAM :

Programmation & Développement : Alexandra Zaïnal
Conception & Développement : Baudouin d'Aumeries
Co-Programmation & Développement : Marc-Olivier Méhu
Soutien technique & logistique : Manuel Goepfert

Contact : metmap@orbifly.com




SOURCES & CREDITS :

   NOAA